createdAt,value
2019-03-20T00:00:50.961Z,99.90
2019-03-20T00:03:20.640Z,99.90
2019-03-20T00:05:50.248Z,99.90
2019-03-20T00:08:19.986Z,99.90
2019-03-20T00:10:50.101Z,99.90
2019-03-20T00:13:19.798Z,99.90
2019-03-20T00:15:49.446Z,99.90
2019-03-20T00:18:19.134Z,99.90
2019-03-20T00:20:48.731Z,99.90
2019-03-20T00:23:18.375Z,99.90
2019-03-20T00:25:48.002Z,99.90
2019-03-20T00:28:17.658Z,99.90
2019-03-20T00:30:47.299Z,99.90
2019-03-20T00:33:16.951Z,99.90
2019-03-20T00:35:46.608Z,99.90
2019-03-20T00:38:16.423Z,99.90
2019-03-20T00:40:46.062Z,99.90
2019-03-20T00:43:15.703Z,99.90
2019-03-20T00:45:45.410Z,99.90
2019-03-20T00:48:15.114Z,99.90
2019-03-20T00:50:44.785Z,99.90
2019-03-20T00:53:14.448Z,99.90
2019-03-20T00:55:44.128Z,99.90
2019-03-20T00:58:13.759Z,99.90
2019-03-20T01:00:43.432Z,99.90
2019-03-20T01:03:13.055Z,99.90
2019-03-20T01:05:42.789Z,99.90
2019-03-20T01:08:12.521Z,99.90
2019-03-20T01:10:42.159Z,99.90
2019-03-20T01:13:11.810Z,99.90
2019-03-20T01:15:41.494Z,99.90
2019-03-20T01:18:11.106Z,99.90
2019-03-20T01:20:40.772Z,99.90
2019-03-20T01:23:10.538Z,99.90
2019-03-20T01:25:40.174Z,99.90
2019-03-20T01:28:09.803Z,99.90
2019-03-20T01:30:39.848Z,99.90
2019-03-20T01:33:10.763Z,99.90
2019-03-20T01:35:40.790Z,99.90
2019-03-20T01:38:10.631Z,99.90
2019-03-20T01:40:40.870Z,99.90
2019-03-20T01:43:10.844Z,99.90
2019-03-20T01:45:40.550Z,99.90
2019-03-20T01:48:10.251Z,99.90
2019-03-20T01:50:39.845Z,99.90
2019-03-20T01:53:09.489Z,99.90
2019-03-20T01:55:39.073Z,99.90
2019-03-20T01:58:08.694Z,99.90
2019-03-20T02:00:38.842Z,99.90
2019-03-20T02:03:08.504Z,99.90
2019-03-20T02:05:38.094Z,99.90
2019-03-20T02:08:07.801Z,99.90
2019-03-20T02:10:37.415Z,99.90
2019-03-20T02:13:07.120Z,99.90
2019-03-20T02:15:39.145Z,99.90
2019-03-20T02:18:08.246Z,99.90
2019-03-20T02:20:37.866Z,99.90
2019-03-20T02:23:07.602Z,99.90
2019-03-20T02:25:37.202Z,99.90
2019-03-20T02:28:06.831Z,99.90
2019-03-20T02:30:36.519Z,99.90
2019-03-20T02:33:06.188Z,99.90
2019-03-20T02:35:50.278Z,99.90
2019-03-20T02:38:07.142Z,99.90
2019-03-20T02:40:36.763Z,99.90
2019-03-20T02:43:06.427Z,99.90
2019-03-20T02:45:36.088Z,99.90
2019-03-20T02:48:05.840Z,99.90
2019-03-20T02:50:35.520Z,99.90
2019-03-20T02:53:05.222Z,99.90
2019-03-20T02:55:34.850Z,99.90
2019-03-20T02:58:04.615Z,99.90
2019-03-20T03:00:34.271Z,99.90
2019-03-20T03:03:03.988Z,99.90
2019-03-20T03:05:33.627Z,99.90
2019-03-20T03:08:03.316Z,99.90
2019-03-20T03:10:33.035Z,99.90
2019-03-20T03:13:02.716Z,99.90
2019-03-20T03:15:32.370Z,99.90
2019-03-20T03:18:02.007Z,99.90
2019-03-20T03:20:31.618Z,99.90
2019-03-20T03:23:01.281Z,99.90
2019-03-20T03:25:30.902Z,99.90
2019-03-20T03:28:00.527Z,99.90
2019-03-20T03:30:30.279Z,99.90
2019-03-20T03:32:59.997Z,99.90
2019-03-20T03:35:29.647Z,99.90
2019-03-20T03:37:59.303Z,99.90
2019-03-20T03:40:29.434Z,99.90
2019-03-20T03:42:59.238Z,99.90
2019-03-20T03:45:28.971Z,99.90
2019-03-20T03:47:58.620Z,99.90
2019-03-20T03:50:28.331Z,99.90
2019-03-20T03:52:58.025Z,99.90
2019-03-20T03:55:27.744Z,99.90
2019-03-20T03:57:57.628Z,99.90
2019-03-20T04:00:27.315Z,99.90
2019-03-20T04:02:56.944Z,99.90
2019-03-20T04:05:26.564Z,99.90
2019-03-20T04:07:56.298Z,99.90
2019-03-20T04:10:25.951Z,99.90
2019-03-20T04:12:55.588Z,99.90
2019-03-20T04:15:25.212Z,99.90
2019-03-20T04:17:54.927Z,99.90
2019-03-20T04:20:24.544Z,99.90
2019-03-20T04:22:54.188Z,99.90
2019-03-20T04:25:23.874Z,99.90
2019-03-20T04:27:53.497Z,99.90
2019-03-20T04:30:23.196Z,99.90
2019-03-20T04:32:52.868Z,99.90
2019-03-20T04:35:22.497Z,99.90
2019-03-20T04:37:52.140Z,99.90
2019-03-20T04:40:21.801Z,99.90
2019-03-20T04:42:51.412Z,99.90
2019-03-20T04:45:21.093Z,99.90
2019-03-20T04:47:50.738Z,99.90
2019-03-20T04:50:20.402Z,99.90
2019-03-20T04:52:51.502Z,99.90
2019-03-20T04:55:22.250Z,99.90
2019-03-20T04:57:51.961Z,99.90
2019-03-20T05:00:21.691Z,99.90
2019-03-20T05:02:51.732Z,99.90
2019-03-20T05:05:21.387Z,99.90
2019-03-20T05:07:51.112Z,99.90
2019-03-20T05:10:20.835Z,99.90
2019-03-20T05:12:50.470Z,99.90
2019-03-20T05:15:20.173Z,99.90
2019-03-20T05:17:49.775Z,99.90
2019-03-20T05:20:19.411Z,99.90
2019-03-20T05:22:49.186Z,99.90
2019-03-20T05:25:18.805Z,99.90
2019-03-20T05:27:48.423Z,99.90
2019-03-20T05:30:18.302Z,99.90
2019-03-20T05:32:47.924Z,99.90
2019-03-20T05:35:17.593Z,99.90
2019-03-20T05:37:47.174Z,99.90
2019-03-20T05:40:16.823Z,99.90
2019-03-20T05:42:46.469Z,99.90
2019-03-20T05:45:16.135Z,99.90
2019-03-20T05:47:45.730Z,99.90
2019-03-20T05:50:15.384Z,99.90
2019-03-20T05:52:45.119Z,99.90
2019-03-20T05:55:15.131Z,99.90
2019-03-20T05:57:44.865Z,99.90
2019-03-20T06:00:15.467Z,99.90
2019-03-20T06:02:45.074Z,99.90
2019-03-20T06:05:14.725Z,99.90
2019-03-20T06:07:44.375Z,99.90
2019-03-20T06:10:14.179Z,99.90
2019-03-20T06:12:43.787Z,99.90
2019-03-20T06:15:13.730Z,99.90
2019-03-20T06:17:43.345Z,99.90
2019-03-20T06:20:13.125Z,99.90
2019-03-20T06:22:42.864Z,99.90
2019-03-20T06:25:12.605Z,99.90
2019-03-20T06:27:42.267Z,99.90
2019-03-20T06:30:14.508Z,99.90
2019-03-20T06:32:44.123Z,99.90
2019-03-20T06:35:14.146Z,99.90
2019-03-20T06:37:43.808Z,99.90
2019-03-20T06:40:13.779Z,99.90
2019-03-20T06:42:43.639Z,99.90
2019-03-20T06:45:13.883Z,99.90
2019-03-20T06:47:43.524Z,99.90
2019-03-20T06:50:14.488Z,99.90
2019-03-20T06:52:44.252Z,99.90
2019-03-20T06:55:13.865Z,99.90
2019-03-20T06:57:43.483Z,99.90
2019-03-20T07:00:44.236Z,99.90
2019-03-20T07:03:17.756Z,99.90
2019-03-20T07:06:35.707Z,99.90
2019-03-20T07:09:27.313Z,99.90
2019-03-20T07:11:56.999Z,99.90
2019-03-20T07:14:26.641Z,99.90
2019-03-20T07:16:56.393Z,99.90
2019-03-20T07:19:26.037Z,99.90
2019-03-20T07:21:55.662Z,99.90
2019-03-20T07:24:25.318Z,99.90
2019-03-20T07:26:54.986Z,99.90
2019-03-20T07:29:24.618Z,99.90
2019-03-20T07:31:54.242Z,99.90
2019-03-20T07:34:23.907Z,99.90
2019-03-20T07:36:53.655Z,99.90
2019-03-20T07:39:23.313Z,99.90
2019-03-20T07:41:53.656Z,99.90
2019-03-20T07:44:23.276Z,99.90
2019-03-20T07:46:52.908Z,99.90
2019-03-20T07:49:22.554Z,99.90
2019-03-20T07:51:52.212Z,99.90
2019-03-20T07:54:21.923Z,99.90
2019-03-20T07:56:51.564Z,99.90
2019-03-20T07:59:21.276Z,99.90
2019-03-20T08:01:50.918Z,99.90
2019-03-20T08:04:20.578Z,99.90
2019-03-20T08:06:50.206Z,99.90
2019-03-20T08:09:19.805Z,99.90
2019-03-20T08:11:49.554Z,99.90
2019-03-20T08:14:19.160Z,99.90
2019-03-20T08:16:49.258Z,99.90
2019-03-20T08:19:18.897Z,99.90
2019-03-20T08:21:48.532Z,99.90
2019-03-20T08:24:18.161Z,99.90
2019-03-20T08:26:47.872Z,99.90
2019-03-20T08:29:17.511Z,99.90
2019-03-20T08:31:47.193Z,99.90
2019-03-20T08:34:16.901Z,99.90
2019-03-20T08:36:48.142Z,99.90
2019-03-20T08:39:18.833Z,99.90
2019-03-20T08:44:35.966Z,99.90
2019-03-20T08:49:53.020Z,99.90
2019-03-20T08:52:22.785Z,99.90
2019-03-20T08:54:52.422Z,99.90
2019-03-20T08:57:22.143Z,99.90
2019-03-20T08:59:51.858Z,99.90
2019-03-20T09:02:21.599Z,99.90
2019-03-20T09:04:51.206Z,99.90
2019-03-20T09:07:20.852Z,99.90
2019-03-20T09:09:51.559Z,99.90
2019-03-20T09:12:33.570Z,99.90
2019-03-20T09:15:03.268Z,99.90
2019-03-20T09:17:32.958Z,99.90
2019-03-20T09:20:02.577Z,99.90
2019-03-20T09:22:32.188Z,99.90
2019-03-20T09:25:01.807Z,99.90
2019-03-20T09:27:31.414Z,99.90
2019-03-20T09:30:01.101Z,99.90
2019-03-20T09:32:30.749Z,99.90
2019-03-20T09:35:00.514Z,99.90
2019-03-20T09:37:30.132Z,99.90
2019-03-20T09:40:00.680Z,99.90
2019-03-20T09:42:30.395Z,99.90
2019-03-20T09:45:00.024Z,99.90
2019-03-20T09:47:29.680Z,99.90
2019-03-20T09:49:59.350Z,97.30
2019-03-20T09:52:28.985Z,91.20
2019-03-20T09:54:58.696Z,92.80
2019-03-20T09:57:28.347Z,90.70
2019-03-20T09:59:58.007Z,90.10
2019-03-20T10:02:27.719Z,87.00
2019-03-20T10:04:57.451Z,90.10
2019-03-20T10:07:27.077Z,75.10
2019-03-20T10:09:56.726Z,75.50
2019-03-20T10:12:26.560Z,73.50
2019-03-20T10:14:56.181Z,71.90
2019-03-20T10:17:25.904Z,69.30
2019-03-20T10:19:55.662Z,68.90
2019-03-20T10:22:28.350Z,67.70
2019-03-20T10:24:57.942Z,66.20
2019-03-20T10:27:27.713Z,68.10
2019-03-20T10:29:57.330Z,62.80
2019-03-20T10:32:26.942Z,61.30
2019-03-20T10:34:57.037Z,60.60
2019-03-20T10:37:26.728Z,60.50
2019-03-20T10:39:56.398Z,58.90
2019-03-20T10:42:26.068Z,58.50
2019-03-20T10:44:55.682Z,59.60
2019-03-20T10:47:25.385Z,57.20
2019-03-20T10:49:55.185Z,57.20
2019-03-20T10:52:24.788Z,56.30
2019-03-20T10:54:54.427Z,54.70
2019-03-20T10:57:24.095Z,54.80
2019-03-20T10:59:53.758Z,55.00
2019-03-20T11:02:23.420Z,55.40
2019-03-20T11:04:53.187Z,53.90
2019-03-20T11:07:22.843Z,54.30
2019-03-20T11:09:52.482Z,52.80
2019-03-20T11:12:22.295Z,51.30
2019-03-20T11:14:51.943Z,51.30
2019-03-20T11:17:21.694Z,51.60
2019-03-20T11:19:51.337Z,51.80
2019-03-20T11:22:20.972Z,51.50
2019-03-20T11:24:50.594Z,51.90
2019-03-20T11:27:20.627Z,51.00
2019-03-20T11:29:50.267Z,51.10
2019-03-20T11:32:19.875Z,51.20
2019-03-20T11:34:49.563Z,51.40
2019-03-20T11:37:19.193Z,50.20
2019-03-20T11:39:48.912Z,49.70
2019-03-20T11:42:18.556Z,49.70
2019-03-20T11:44:48.176Z,49.90
2019-03-20T11:47:17.814Z,50.20
2019-03-20T11:49:47.496Z,48.90
2019-03-20T11:52:17.240Z,46.20
2019-03-20T11:54:47.186Z,46.40
2019-03-20T11:57:16.886Z,46.70
2019-03-20T11:59:46.490Z,46.00
2019-03-20T12:02:27.496Z,44.90
2019-03-20T12:04:47.817Z,46.60
2019-03-20T12:07:17.422Z,45.80
2019-03-20T12:09:47.058Z,45.60
2019-03-20T12:12:16.714Z,44.70
2019-03-20T12:14:46.335Z,44.60
2019-03-20T12:17:16.012Z,45.90
2019-03-20T12:19:45.703Z,44.30
2019-03-20T12:22:15.316Z,43.00
2019-03-20T12:24:46.847Z,42.20
2019-03-20T12:27:16.236Z,42.10
2019-03-20T12:29:45.882Z,39.60
2019-03-20T12:32:15.536Z,42.20
2019-03-20T12:34:45.239Z,40.10
2019-03-20T12:37:15.005Z,39.20
2019-03-20T12:39:52.868Z,39.60
2019-03-20T12:42:15.923Z,39.00
2019-03-20T12:44:45.632Z,38.90
2019-03-20T12:47:15.251Z,38.30
2019-03-20T12:49:44.916Z,37.70
2019-03-20T12:52:14.534Z,37.70
2019-03-20T12:54:44.172Z,38.20
2019-03-20T12:57:13.849Z,37.90
2019-03-20T12:59:43.509Z,37.00
2019-03-20T13:02:13.184Z,36.80
2019-03-20T13:04:42.811Z,36.70
2019-03-20T13:07:12.593Z,36.10
2019-03-20T13:09:42.207Z,35.70
2019-03-20T13:12:11.886Z,34.10
2019-03-20T13:14:41.514Z,35.30
2019-03-20T13:17:11.198Z,34.90
2019-03-20T13:19:40.894Z,35.60
2019-03-20T13:22:10.534Z,36.10
2019-03-20T13:24:40.162Z,34.50
2019-03-20T13:27:09.807Z,34.50
2019-03-20T13:29:39.889Z,33.20
2019-03-20T13:32:09.511Z,32.20
2019-03-20T13:34:39.168Z,32.00
2019-03-20T13:37:08.895Z,30.10
2019-03-20T13:39:38.527Z,29.10
2019-03-20T13:42:08.216Z,30.20
2019-03-20T13:44:37.841Z,28.50
2019-03-20T13:47:08.282Z,28.20
2019-03-20T13:49:38.119Z,27.50
2019-03-20T13:52:07.804Z,27.30
2019-03-20T13:54:37.476Z,25.40
2019-03-20T13:57:07.168Z,25.90
2019-03-20T13:59:36.901Z,26.10
2019-03-20T14:02:06.892Z,25.40
2019-03-20T14:04:36.595Z,25.20
2019-03-20T14:07:06.258Z,26.50
2019-03-20T14:09:35.956Z,26.20
2019-03-20T14:12:05.635Z,26.50
2019-03-20T14:14:35.279Z,25.50
2019-03-20T14:17:04.943Z,25.70
2019-03-20T14:19:34.644Z,25.60
2019-03-20T14:22:04.238Z,25.40
2019-03-20T14:24:36.001Z,25.30
2019-03-20T14:27:05.178Z,26.30
2019-03-20T14:29:34.826Z,26.30
2019-03-20T14:32:04.545Z,24.90
2019-03-20T14:34:34.134Z,24.20
2019-03-20T14:37:03.783Z,25.80
2019-03-20T14:39:33.775Z,25.00
2019-03-20T14:42:03.494Z,25.10
2019-03-20T14:44:33.147Z,25.90
2019-03-20T14:47:02.756Z,25.80
2019-03-20T14:49:32.400Z,25.50
2019-03-20T14:52:02.028Z,25.10
2019-03-20T14:54:31.651Z,24.80
2019-03-20T14:57:01.266Z,24.80
2019-03-20T14:59:30.863Z,24.90
2019-03-20T15:02:00.585Z,25.10
2019-03-20T15:04:30.238Z,24.70
2019-03-20T15:06:59.885Z,24.80
2019-03-20T15:09:29.518Z,24.50
2019-03-20T15:11:59.172Z,24.20
2019-03-20T15:14:28.889Z,23.70
2019-03-20T15:16:58.531Z,23.80
2019-03-20T15:19:28.256Z,24.60
2019-03-20T15:21:57.951Z,24.80
2019-03-20T15:24:27.554Z,24.00
2019-03-20T15:26:57.630Z,24.20
2019-03-20T15:29:27.242Z,24.70
2019-03-20T15:31:56.862Z,25.10
2019-03-20T15:34:26.975Z,25.60
2019-03-20T15:36:56.699Z,26.40
2019-03-20T15:39:26.440Z,26.00
2019-03-20T15:41:56.198Z,26.30
2019-03-20T15:44:25.867Z,25.60
2019-03-20T15:46:55.502Z,27.40
2019-03-20T15:49:25.263Z,27.80
2019-03-20T15:51:54.892Z,29.00
2019-03-20T15:54:24.533Z,29.40
2019-03-20T15:56:55.995Z,30.00
2019-03-20T15:59:25.497Z,29.10
2019-03-20T16:01:55.162Z,29.60
2019-03-20T16:04:25.217Z,29.30
2019-03-20T16:06:54.865Z,29.20
2019-03-20T16:09:24.491Z,29.60
2019-03-20T16:11:54.221Z,30.80
2019-03-20T16:14:23.830Z,31.30
2019-03-20T16:16:53.518Z,30.80
2019-03-20T16:19:23.150Z,31.30
2019-03-20T16:21:52.791Z,31.50
2019-03-20T16:24:22.392Z,32.10
2019-03-20T16:26:52.077Z,33.70
2019-03-20T16:29:21.747Z,33.60
2019-03-20T16:31:51.398Z,33.80
2019-03-20T16:34:21.053Z,33.80
2019-03-20T16:36:50.695Z,34.40
2019-03-20T16:39:20.442Z,34.60
2019-03-20T16:41:50.122Z,34.90
2019-03-20T16:44:19.717Z,35.50
2019-03-20T16:46:49.364Z,35.60
2019-03-20T16:49:19.102Z,35.70
2019-03-20T16:51:48.754Z,36.20
2019-03-20T16:54:18.402Z,36.60
2019-03-20T16:56:48.133Z,37.00
2019-03-20T16:59:17.777Z,37.30
2019-03-20T17:01:47.547Z,38.00
2019-03-20T17:04:17.192Z,37.90
2019-03-20T17:06:46.836Z,38.20
2019-03-20T17:09:18.511Z,38.70
2019-03-20T17:11:48.194Z,38.50
2019-03-20T17:14:17.957Z,39.80
2019-03-20T17:16:47.880Z,40.40
2019-03-20T17:19:17.587Z,40.80
2019-03-20T17:21:47.217Z,41.50
2019-03-20T17:24:16.956Z,42.60
2019-03-20T17:26:46.959Z,42.60
2019-03-20T17:29:16.649Z,42.80
2019-03-20T17:31:46.212Z,43.10
2019-03-20T17:34:15.881Z,43.40
2019-03-20T17:36:45.675Z,44.50
2019-03-20T17:39:15.323Z,44.40
2019-03-20T17:41:45.032Z,44.40
2019-03-20T17:44:14.693Z,44.60
2019-03-20T17:46:44.269Z,45.60
2019-03-20T17:49:13.916Z,45.80
2019-03-20T17:51:43.946Z,45.60
2019-03-20T17:54:13.632Z,45.70
2019-03-20T17:56:43.337Z,46.00
2019-03-20T17:59:13.361Z,46.30
2019-03-20T18:01:43.160Z,46.40
2019-03-20T18:04:12.799Z,46.70
2019-03-20T18:06:42.428Z,47.00
2019-03-20T18:09:12.047Z,47.50
2019-03-20T18:11:47.339Z,48.20
2019-03-20T18:14:13.123Z,48.30
2019-03-20T18:16:42.749Z,48.40
2019-03-20T18:19:12.644Z,48.60
2019-03-20T18:21:42.254Z,48.90
2019-03-20T18:24:11.881Z,49.20
2019-03-20T18:26:41.601Z,49.50
2019-03-20T18:29:11.258Z,49.60
2019-03-20T18:31:45.903Z,49.70
2019-03-20T18:34:12.223Z,50.00
2019-03-20T18:36:41.890Z,50.00
2019-03-20T18:39:11.518Z,50.10
2019-03-20T18:41:41.273Z,50.30
2019-03-20T18:44:10.912Z,50.50
2019-03-20T18:46:40.543Z,50.80
2019-03-20T18:49:10.210Z,50.90
2019-03-20T18:51:39.843Z,50.70
2019-03-20T18:54:09.455Z,50.70
2019-03-20T18:56:39.096Z,50.70
2019-03-20T18:59:08.746Z,50.90
2019-03-20T19:01:38.402Z,51.00
2019-03-20T19:04:08.038Z,51.10
2019-03-20T19:06:38.144Z,50.90
2019-03-20T19:09:09.535Z,50.90
2019-03-20T19:11:39.366Z,51.00
2019-03-20T19:14:09.144Z,52.00
2019-03-20T19:16:41.146Z,52.50
2019-03-20T19:19:10.796Z,52.90
2019-03-20T19:21:40.404Z,53.10
2019-03-20T19:24:10.302Z,53.40
2019-03-20T19:26:39.921Z,53.70
2019-03-20T19:29:10.047Z,54.10
2019-03-20T19:31:39.876Z,54.10
2019-03-20T19:34:09.587Z,54.40
2019-03-20T19:36:40.356Z,54.60
2019-03-20T19:39:12.925Z,54.80
2019-03-20T19:41:42.880Z,55.10
2019-03-20T19:44:12.582Z,55.10
2019-03-20T19:46:42.218Z,55.20
2019-03-20T19:49:12.051Z,55.30
2019-03-20T19:51:41.701Z,55.50
2019-03-20T19:54:11.270Z,56.10
2019-03-20T19:56:41.212Z,56.30
2019-03-20T19:59:11.099Z,56.50
2019-03-20T20:01:40.765Z,56.50
2019-03-20T20:04:10.496Z,56.60
2019-03-20T20:06:40.186Z,56.90
2019-03-20T20:09:09.887Z,57.10
2019-03-20T20:11:39.615Z,57.30
2019-03-20T20:14:09.307Z,57.60
2019-03-20T20:16:39.033Z,57.90
2019-03-20T20:19:08.762Z,58.20
2019-03-20T20:21:38.466Z,58.90
2019-03-20T20:24:08.218Z,58.80
2019-03-20T20:26:37.905Z,59.00
2019-03-20T20:29:07.556Z,58.70
2019-03-20T20:31:37.271Z,58.90
2019-03-20T20:34:06.981Z,59.00
2019-03-20T20:36:36.660Z,59.20
2019-03-20T20:39:07.975Z,59.40
2019-03-20T20:41:37.706Z,59.60
2019-03-20T20:44:07.358Z,59.80
2019-03-20T20:46:37.066Z,60.30
2019-03-20T20:49:06.919Z,60.50
2019-03-20T20:51:36.615Z,61.00
2019-03-20T20:54:06.431Z,61.40
2019-03-20T20:56:36.138Z,61.20
2019-03-20T20:59:05.844Z,61.50
2019-03-20T21:01:35.620Z,61.70
2019-03-20T21:04:06.372Z,62.30
2019-03-20T21:06:36.236Z,62.70
2019-03-20T21:09:08.237Z,64.30
2019-03-20T21:11:37.972Z,63.80
2019-03-20T21:14:07.895Z,63.60
2019-03-20T21:16:38.278Z,64.20
2019-03-20T21:19:36.799Z,64.70
2019-03-20T21:22:50.447Z,65.20
2019-03-20T21:25:22.064Z,65.70
2019-03-20T21:28:56.840Z,65.90
2019-03-20T21:31:47.842Z,67.70
2019-03-20T21:35:03.838Z,68.90
2019-03-20T21:38:00.269Z,67.80
2019-03-20T21:40:30.779Z,69.30
2019-03-20T21:43:55.358Z,69.40
2019-03-20T21:47:03.133Z,69.90
2019-03-20T21:49:33.401Z,70.20
2019-03-20T21:52:03.660Z,71.50
2019-03-20T21:55:19.213Z,71.80
2019-03-20T21:58:08.621Z,72.60
2019-03-20T22:01:33.871Z,74.50
2019-03-20T22:04:04.242Z,74.60
2019-03-20T22:07:09.378Z,76.00
2019-03-20T22:10:41.062Z,75.50
2019-03-20T22:13:24.710Z,75.50
2019-03-20T22:16:59.467Z,77.20
2019-03-20T22:19:53.423Z,76.80
2019-03-20T22:22:58.666Z,77.70
2019-03-20T22:26:05.459Z,78.60
2019-03-20T22:29:06.676Z,79.90
2019-03-20T22:31:38.691Z,79.60
2019-03-20T22:34:48.646Z,81.40
2019-03-20T22:37:19.247Z,82.00
2019-03-20T22:40:31.457Z,83.10
2019-03-20T22:43:15.355Z,83.50
2019-03-20T22:46:38.015Z,84.30
2019-03-20T22:49:55.303Z,85.30
2019-03-20T22:52:57.315Z,85.80
2019-03-20T22:56:10.916Z,86.50
2019-03-20T22:58:47.971Z,86.70
2019-03-20T23:01:28.209Z,87.90
2019-03-20T23:04:03.233Z,88.30
2019-03-20T23:06:33.482Z,89.30
2019-03-20T23:09:04.522Z,88.80
2019-03-20T23:11:34.769Z,88.50
2019-03-20T23:14:05.160Z,87.70
2019-03-20T23:16:35.443Z,88.60
2019-03-20T23:19:05.707Z,88.20
2019-03-20T23:21:35.962Z,88.90
2019-03-20T23:24:06.211Z,88.90
2019-03-20T23:26:36.552Z,89.10
2019-03-20T23:29:06.829Z,87.60
2019-03-20T23:31:37.107Z,87.80
2019-03-20T23:34:07.701Z,88.30
2019-03-20T23:36:38.005Z,89.70
2019-03-20T23:39:09.527Z,88.90
2019-03-20T23:41:39.792Z,89.60
2019-03-20T23:44:10.099Z,88.20
2019-03-20T23:46:40.699Z,89.60
2019-03-20T23:49:14.685Z,89.90
2019-03-20T23:51:44.932Z,90.20
2019-03-20T23:54:17.500Z,91.00
2019-03-20T23:56:47.724Z,92.00
2019-03-20T23:59:17.991Z,92.00
